SBKP/CPQ METAR and TAF weather

Enter ICAO airport designator
Station Type Date Time Source
SBKP METAR 2020/08/15 17:00 UTC NOAA

SBKP 151700Z 21012KT CAVOK 27/14 Q1013


Station Type Date Time Source
SBKP Decoded METAR 2020/08/15 17:00 UTC NOAA

Campinas Aeroporto , Brazil (SBKP) 23-00S 047-08W 661M
Aug 15, 2020 - 01:00 PM EDT / 2020.08.15 1700 UTC
Wind: from the SSW (210 degrees) at 14 MPH (12 KT):0
Visibility: greater than 7 mile(s):0
Temperature: 80 F (27 C)
Dew Point: 57 F (14 C)
Relative Humidity: 44%
Pressure (altimeter): 29.91 in. Hg (1013 hPa)
ob: SBKP 151700Z 21012KT CAVOK 27/14 Q1013
cycle: 17

Station Type Date Time Source
SBKP TAF 2020/08/15 18:39 UTC NOAA

TAF SBKP 151600Z 1518/1618 33009KT 9999 FEW040 TX28/1518Z TN19/1609Z PROB30 1519/1522 20010KT 7000 RA SCT040 FEW050TCU
BECMG 1522/1524 12007KT CAVOK
BECMG 1602/1604 07005KT
BECMG 1610/1612 VRB06KT 8000 SCT045 PROB30 1616/1618 25012KT 6000 RA SCT030 FEW050TCU
RMK PGE

Example: see airport list